sensor_id;sensor_type;location;lat;lon;timestamp;P1;durP1;ratioP1;P2;durP2;ratioP2
4652;SDS011;9900;48.738;9.306;2022-12-18T00:00:07;60.10;;;25.03;;
4652;SDS011;9900;48.738;9.306;2022-12-18T00:02:36;62.43;;;25.13;;
4652;SDS011;9900;48.738;9.306;2022-12-18T00:05:08;58.77;;;23.80;;
4652;SDS011;9900;48.738;9.306;2022-12-18T00:07:37;66.10;;;25.87;;
4652;SDS011;9900;48.738;9.306;2022-12-18T00:10:06;62.10;;;26.17;;
4652;SDS011;9900;48.738;9.306;2022-12-18T00:12:35;58.70;;;25.17;;
4652;SDS011;9900;48.738;9.306;2022-12-18T00:15:04;66.80;;;25.70;;
4652;SDS011;9900;48.738;9.306;2022-12-18T00:17:33;67.27;;;24.20;;
4652;SDS011;9900;48.738;9.306;2022-12-18T00:20:02;57.00;;;23.50;;
4652;SDS011;9900;48.738;9.306;2022-12-18T00:22:33;56.53;;;25.00;;
4652;SDS011;9900;48.738;9.306;2022-12-18T00:25:01;64.37;;;25.63;;
4652;SDS011;9900;48.738;9.306;2022-12-18T00:27:30;67.47;;;24.87;;
4652;SDS011;9900;48.738;9.306;2022-12-18T00:29:59;59.83;;;24.70;;
4652;SDS011;9900;48.738;9.306;2022-12-18T00:32:28;54.37;;;23.20;;
4652;SDS011;9900;48.738;9.306;2022-12-18T00:34:56;58.63;;;24.50;;
4652;SDS011;9900;48.738;9.306;2022-12-18T00:37:25;61.93;;;24.70;;
4652;SDS011;9900;48.738;9.306;2022-12-18T00:39:55;53.83;;;23.20;;
4652;SDS011;9900;48.738;9.306;2022-12-18T00:42:24;64.03;;;24.70;;
4652;SDS011;9900;48.738;9.306;2022-12-18T00:45:10;62.60;;;24.00;;
4652;SDS011;9900;48.738;9.306;2022-12-18T00:47:39;60.87;;;24.27;;
4652;SDS011;9900;48.738;9.306;2022-12-18T00:50:08;71.70;;;24.13;;
4652;SDS011;9900;48.738;9.306;2022-12-18T00:52:37;62.63;;;24.47;;
4652;SDS011;9900;48.738;9.306;2022-12-18T00:55:09;66.37;;;24.70;;
4652;SDS011;9900;48.738;9.306;2022-12-18T00:57:38;63.17;;;23.97;;
4652;SDS011;9900;48.738;9.306;2022-12-18T01:00:07;61.10;;;23.97;;
4652;SDS011;9900;48.738;9.306;2022-12-18T01:02:37;57.60;;;24.73;;
4652;SDS011;9900;48.738;9.306;2022-12-18T01:05:06;60.07;;;23.67;;
4652;SDS011;9900;48.738;9.306;2022-12-18T01:07:35;58.37;;;22.77;;
4652;SDS011;9900;48.738;9.306;2022-12-18T01:10:04;56.20;;;22.27;;
4652;SDS011;9900;48.738;9.306;2022-12-18T01:12:35;56.80;;;23.53;;
4652;SDS011;9900;48.738;9.306;2022-12-18T01:15:04;64.43;;;24.57;;
4652;SDS011;9900;48.738;9.306;2022-12-18T01:17:35;57.63;;;23.20;;
4652;SDS011;9900;48.738;9.306;2022-12-18T01:20:04;53.07;;;22.47;;
4652;SDS011;9900;48.738;9.306;2022-12-18T01:22:33;62.20;;;24.37;;
4652;SDS011;9900;48.738;9.306;2022-12-18T01:25:02;59.40;;;21.47;;
4652;SDS011;9900;48.738;9.306;2022-12-18T01:27:32;50.83;;;22.77;;
4652;SDS011;9900;48.738;9.306;2022-12-18T01:30:03;59.47;;;23.57;;
4652;SDS011;9900;48.738;9.306;2022-12-18T01:32:32;57.53;;;22.60;;
4652;SDS011;9900;48.738;9.306;2022-12-18T01:35:01;59.60;;;24.00;;
4652;SDS011;9900;48.738;9.306;2022-12-18T01:37:30;52.87;;;21.37;;
4652;SDS011;9900;48.738;9.306;2022-12-18T01:39:58;53.13;;;22.03;;
4652;SDS011;9900;48.738;9.306;2022-12-18T01:42:27;48.80;;;22.00;;
4652;SDS011;9900;48.738;9.306;2022-12-18T01:45:01;43.00;;;20.80;;
4652;SDS011;9900;48.738;9.306;2022-12-18T01:47:34;50.70;;;20.83;;
4652;SDS011;9900;48.738;9.306;2022-12-18T01:50:06;46.30;;;20.17;;
4652;SDS011;9900;48.738;9.306;2022-12-18T01:52:37;47.27;;;20.60;;
4652;SDS011;9900;48.738;9.306;2022-12-18T01:55:07;50.90;;;20.87;;
4652;SDS011;9900;48.738;9.306;2022-12-18T01:57:37;48.53;;;20.80;;
4652;SDS011;9900;48.738;9.306;2022-12-18T02:00:08;51.60;;;20.70;;
4652;SDS011;9900;48.738;9.306;2022-12-18T02:02:38;61.00;;;23.10;;
4652;SDS011;9900;48.738;9.306;2022-12-18T02:05:08;45.77;;;19.43;;
4652;SDS011;9900;48.738;9.306;2022-12-18T02:07:39;43.93;;;19.67;;
4652;SDS011;9900;48.738;9.306;2022-12-18T02:10:13;51.13;;;20.90;;
4652;SDS011;9900;48.738;9.306;2022-12-18T02:12:45;53.83;;;22.20;;
4652;SDS011;9900;48.738;9.306;2022-12-18T02:15:21;54.00;;;20.37;;
4652;SDS011;9900;48.738;9.306;2022-12-18T02:17:55;44.57;;;20.97;;
4652;SDS011;9900;48.738;9.306;2022-12-18T02:20:28;51.20;;;21.90;;
4652;SDS011;9900;48.738;9.306;2022-12-18T02:23:04;46.70;;;20.43;;
4652;SDS011;9900;48.738;9.306;2022-12-18T02:25:40;48.87;;;18.53;;
4652;SDS011;9900;48.738;9.306;2022-12-18T02:28:20;44.60;;;18.23;;
4652;SDS011;9900;48.738;9.306;2022-12-18T02:30:51;43.93;;;18.67;;
4652;SDS011;9900;48.738;9.306;2022-12-18T02:33:22;45.57;;;18.10;;
4652;SDS011;9900;48.738;9.306;2022-12-18T02:35:51;46.07;;;19.20;;
4652;SDS011;9900;48.738;9.306;2022-12-18T02:38:20;50.10;;;20.40;;
4652;SDS011;9900;48.738;9.306;2022-12-18T02:40:49;42.07;;;18.90;;
4652;SDS011;9900;48.738;9.306;2022-12-18T02:43:20;41.73;;;19.27;;
4652;SDS011;9900;48.738;9.306;2022-12-18T02:45:50;49.00;;;18.20;;
4652;SDS011;9900;48.738;9.306;2022-12-18T02:48:22;47.57;;;19.53;;
4652;SDS011;9900;48.738;9.306;2022-12-18T02:50:59;51.37;;;18.53;;
4652;SDS011;9900;48.738;9.306;2022-12-18T02:53:32;38.40;;;18.67;;
4652;SDS011;9900;48.738;9.306;2022-12-18T02:56:07;36.47;;;16.90;;
4652;SDS011;9900;48.738;9.306;2022-12-18T02:58:40;44.17;;;19.30;;
4652;SDS011;9900;48.738;9.306;2022-12-18T03:01:15;38.60;;;18.47;;
4652;SDS011;9900;48.738;9.306;2022-12-18T03:03:46;40.63;;;16.63;;
4652;SDS011;9900;48.738;9.306;2022-12-18T03:06:18;47.87;;;21.00;;
4652;SDS011;9900;48.738;9.306;2022-12-18T03:08:52;50.80;;;19.17;;
4652;SDS011;9900;48.738;9.306;2022-12-18T03:11:24;44.47;;;19.07;;
4652;SDS011;9900;48.738;9.306;2022-12-18T03:14:09;43.80;;;18.30;;
4652;SDS011;9900;48.738;9.306;2022-12-18T03:16:39;48.00;;;19.00;;
4652;SDS011;9900;48.738;9.306;2022-12-18T03:19:08;47.60;;;19.67;;
4652;SDS011;9900;48.738;9.306;2022-12-18T03:21:40;49.00;;;21.23;;
4652;SDS011;9900;48.738;9.306;2022-12-18T03:24:11;51.90;;;19.50;;
4652;SDS011;9900;48.738;9.306;2022-12-18T03:26:42;49.10;;;19.10;;
4652;SDS011;9900;48.738;9.306;2022-12-18T03:29:14;41.03;;;17.53;;
4652;SDS011;9900;48.738;9.306;2022-12-18T03:31:47;47.67;;;19.50;;
4652;SDS011;9900;48.738;9.306;2022-12-18T03:34:20;45.93;;;20.13;;
4652;SDS011;9900;48.738;9.306;2022-12-18T03:36:51;47.70;;;20.07;;
4652;SDS011;9900;48.738;9.306;2022-12-18T03:39:20;48.90;;;18.60;;
4652;SDS011;9900;48.738;9.306;2022-12-18T03:41:51;45.87;;;17.70;;
4652;SDS011;9900;48.738;9.306;2022-12-18T03:44:22;42.93;;;18.50;;
4652;SDS011;9900;48.738;9.306;2022-12-18T03:46:58;43.60;;;17.90;;
4652;SDS011;9900;48.738;9.306;2022-12-18T03:49:32;41.13;;;17.07;;
4652;SDS011;9900;48.738;9.306;2022-12-18T03:52:04;43.73;;;16.60;;
4652;SDS011;9900;48.738;9.306;2022-12-18T03:54:34;40.33;;;17.57;;
4652;SDS011;9900;48.738;9.306;2022-12-18T03:57:07;41.87;;;17.40;;
4652;SDS011;9900;48.738;9.306;2022-12-18T03:59:38;42.33;;;16.60;;
4652;SDS011;9900;48.738;9.306;2022-12-18T04:02:07;47.67;;;16.60;;
4652;SDS011;9900;48.738;9.306;2022-12-18T04:04:37;35.13;;;15.97;;
4652;SDS011;9900;48.738;9.306;2022-12-18T04:07:06;43.80;;;16.70;;
4652;SDS011;9900;48.738;9.306;2022-12-18T04:09:35;40.53;;;16.90;;
4652;SDS011;9900;48.738;9.306;2022-12-18T04:12:06;40.97;;;18.93;;
4652;SDS011;9900;48.738;9.306;2022-12-18T04:14:35;38.67;;;16.77;;
4652;SDS011;9900;48.738;9.306;2022-12-18T04:17:03;44.33;;;17.27;;
4652;SDS011;9900;48.738;9.306;2022-12-18T04:19:32;37.80;;;17.47;;
4652;SDS011;9900;48.738;9.306;2022-12-18T04:22:01;40.97;;;17.03;;
4652;SDS011;9900;48.738;9.306;2022-12-18T04:24:29;43.00;;;18.07;;
4652;SDS011;9900;48.738;9.306;2022-12-18T04:26:58;51.10;;;18.40;;
4652;SDS011;9900;48.738;9.306;2022-12-18T04:29:28;38.80;;;16.40;;
4652;SDS011;9900;48.738;9.306;2022-12-18T04:31:56;41.70;;;16.87;;
4652;SDS011;9900;48.738;9.306;2022-12-18T04:34:26;44.50;;;18.03;;
4652;SDS011;9900;48.738;9.306;2022-12-18T04:36:54;39.53;;;17.00;;
4652;SDS011;9900;48.738;9.306;2022-12-18T04:39:23;38.80;;;15.87;;
4652;SDS011;9900;48.738;9.306;2022-12-18T04:41:52;31.67;;;15.27;;
4652;SDS011;9900;48.738;9.306;2022-12-18T04:44:21;38.20;;;14.90;;
4652;SDS011;9900;48.738;9.306;2022-12-18T04:46:51;37.13;;;15.10;;
4652;SDS011;9900;48.738;9.306;2022-12-18T04:49:20;31.87;;;15.03;;
4652;SDS011;9900;48.738;9.306;2022-12-18T04:51:49;34.23;;;14.93;;
4652;SDS011;9900;48.738;9.306;2022-12-18T04:54:18;30.50;;;13.73;;
4652;SDS011;9900;48.738;9.306;2022-12-18T04:56:47;29.93;;;14.40;;
4652;SDS011;9900;48.738;9.306;2022-12-18T04:59:16;34.40;;;15.10;;
4652;SDS011;9900;48.738;9.306;2022-12-18T05:01:45;36.80;;;13.63;;
4652;SDS011;9900;48.738;9.306;2022-12-18T05:04:15;31.63;;;14.00;;
4652;SDS011;9900;48.738;9.306;2022-12-18T05:06:44;26.43;;;12.80;;
4652;SDS011;9900;48.738;9.306;2022-12-18T05:09:13;32.03;;;14.10;;
4652;SDS011;9900;48.738;9.306;2022-12-18T05:11:42;28.20;;;13.63;;
4652;SDS011;9900;48.738;9.306;2022-12-18T05:14:12;30.87;;;13.00;;
4652;SDS011;9900;48.738;9.306;2022-12-18T05:16:41;30.13;;;13.30;;
4652;SDS011;9900;48.738;9.306;2022-12-18T05:19:10;30.20;;;12.20;;
4652;SDS011;9900;48.738;9.306;2022-12-18T05:21:40;29.93;;;13.20;;
4652;SDS011;9900;48.738;9.306;2022-12-18T05:24:09;33.00;;;13.70;;
4652;SDS011;9900;48.738;9.306;2022-12-18T05:26:38;25.90;;;12.50;;
4652;SDS011;9900;48.738;9.306;2022-12-18T05:29:07;32.73;;;14.13;;
4652;SDS011;9900;48.738;9.306;2022-12-18T05:31:40;32.00;;;13.70;;
4652;SDS011;9900;48.738;9.306;2022-12-18T05:34:09;31.97;;;13.53;;
4652;SDS011;9900;48.738;9.306;2022-12-18T05:36:40;26.90;;;11.67;;
4652;SDS011;9900;48.738;9.306;2022-12-18T05:39:10;41.87;;;14.93;;
4652;SDS011;9900;48.738;9.306;2022-12-18T05:41:39;37.50;;;14.53;;
4652;SDS011;9900;48.738;9.306;2022-12-18T05:44:09;34.13;;;13.00;;
4652;SDS011;9900;48.738;9.306;2022-12-18T05:46:37;29.73;;;13.50;;
4652;SDS011;9900;48.738;9.306;2022-12-18T05:49:07;31.50;;;12.20;;
4652;SDS011;9900;48.738;9.306;2022-12-18T05:51:36;36.93;;;13.53;;
4652;SDS011;9900;48.738;9.306;2022-12-18T05:54:06;27.30;;;13.03;;
4652;SDS011;9900;48.738;9.306;2022-12-18T05:56:35;28.53;;;12.37;;
4652;SDS011;9900;48.738;9.306;2022-12-18T05:59:04;31.80;;;12.80;;
4652;SDS011;9900;48.738;9.306;2022-12-18T06:01:32;34.53;;;13.37;;
4652;SDS011;9900;48.738;9.306;2022-12-18T06:04:01;32.30;;;13.80;;
4652;SDS011;9900;48.738;9.306;2022-12-18T06:06:31;30.10;;;13.57;;
4652;SDS011;9900;48.738;9.306;2022-12-18T06:09:00;27.53;;;12.30;;
4652;SDS011;9900;48.738;9.306;2022-12-18T06:11:36;29.20;;;12.63;;
4652;SDS011;9900;48.738;9.306;2022-12-18T06:14:05;24.53;;;11.40;;
4652;SDS011;9900;48.738;9.306;2022-12-18T06:16:34;26.53;;;12.00;;
4652;SDS011;9900;48.738;9.306;2022-12-18T06:19:03;28.23;;;13.07;;
4652;SDS011;9900;48.738;9.306;2022-12-18T06:21:33;27.10;;;13.40;;
4652;SDS011;9900;48.738;9.306;2022-12-18T06:24:02;29.73;;;13.00;;
4652;SDS011;9900;48.738;9.306;2022-12-18T06:26:31;26.50;;;12.07;;
4652;SDS011;9900;48.738;9.306;2022-12-18T06:29:01;27.97;;;12.13;;
4652;SDS011;9900;48.738;9.306;2022-12-18T06:31:30;31.03;;;13.40;;
4652;SDS011;9900;48.738;9.306;2022-12-18T06:33:58;30.90;;;13.20;;
4652;SDS011;9900;48.738;9.306;2022-12-18T06:36:27;31.83;;;14.60;;
4652;SDS011;9900;48.738;9.306;2022-12-18T06:38:56;29.57;;;13.97;;
4652;SDS011;9900;48.738;9.306;2022-12-18T06:41:25;30.30;;;14.13;;
4652;SDS011;9900;48.738;9.306;2022-12-18T06:43:53;37.73;;;13.47;;
4652;SDS011;9900;48.738;9.306;2022-12-18T06:46:27;26.00;;;13.00;;
4652;SDS011;9900;48.738;9.306;2022-12-18T06:48:56;32.07;;;13.20;;
4652;SDS011;9900;48.738;9.306;2022-12-18T06:51:24;28.13;;;13.33;;
4652;SDS011;9900;48.738;9.306;2022-12-18T06:53:53;31.33;;;12.90;;
4652;SDS011;9900;48.738;9.306;2022-12-18T06:56:22;27.50;;;13.00;;
4652;SDS011;9900;48.738;9.306;2022-12-18T06:58:50;28.40;;;12.60;;
4652;SDS011;9900;48.738;9.306;2022-12-18T07:01:19;34.40;;;13.83;;
4652;SDS011;9900;48.738;9.306;2022-12-18T07:03:52;29.10;;;13.10;;
4652;SDS011;9900;48.738;9.306;2022-12-18T07:06:22;35.00;;;14.03;;
4652;SDS011;9900;48.738;9.306;2022-12-18T07:08:53;32.30;;;14.17;;
4652;SDS011;9900;48.738;9.306;2022-12-18T07:11:22;34.20;;;14.70;;
4652;SDS011;9900;48.738;9.306;2022-12-18T07:13:51;33.03;;;14.20;;
4652;SDS011;9900;48.738;9.306;2022-12-18T07:16:21;38.80;;;13.77;;
4652;SDS011;9900;48.738;9.306;2022-12-18T07:18:53;34.13;;;12.93;;
4652;SDS011;9900;48.738;9.306;2022-12-18T07:21:23;35.97;;;20.10;;
4652;SDS011;9900;48.738;9.306;2022-12-18T07:23:52;36.00;;;17.93;;
4652;SDS011;9900;48.738;9.306;2022-12-18T07:26:21;34.70;;;16.40;;
4652;SDS011;9900;48.738;9.306;2022-12-18T07:28:50;32.80;;;14.60;;
4652;SDS011;9900;48.738;9.306;2022-12-18T07:31:23;33.37;;;15.73;;
4652;SDS011;9900;48.738;9.306;2022-12-18T07:33:54;32.17;;;14.10;;
4652;SDS011;9900;48.738;9.306;2022-12-18T07:36:23;29.43;;;12.77;;
4652;SDS011;9900;48.738;9.306;2022-12-18T07:38:51;37.43;;;14.40;;
4652;SDS011;9900;48.738;9.306;2022-12-18T07:41:20;30.47;;;14.53;;
4652;SDS011;9900;48.738;9.306;2022-12-18T07:43:49;36.03;;;15.40;;
4652;SDS011;9900;48.738;9.306;2022-12-18T07:46:18;29.10;;;13.33;;
4652;SDS011;9900;48.738;9.306;2022-12-18T07:48:47;28.83;;;12.00;;
4652;SDS011;9900;48.738;9.306;2022-12-18T07:51:18;27.63;;;13.67;;
4652;SDS011;9900;48.738;9.306;2022-12-18T07:53:47;32.13;;;14.37;;
4652;SDS011;9900;48.738;9.306;2022-12-18T07:56:19;35.00;;;13.97;;
4652;SDS011;9900;48.738;9.306;2022-12-18T07:58:55;34.23;;;14.30;;
4652;SDS011;9900;48.738;9.306;2022-12-18T08:01:24;32.73;;;13.50;;
4652;SDS011;9900;48.738;9.306;2022-12-18T08:03:53;34.40;;;13.93;;
4652;SDS011;9900;48.738;9.306;2022-12-18T08:06:23;36.50;;;13.23;;
4652;SDS011;9900;48.738;9.306;2022-12-18T08:08:52;32.10;;;14.40;;
4652;SDS011;9900;48.738;9.306;2022-12-18T08:11:21;32.30;;;14.70;;
4652;SDS011;9900;48.738;9.306;2022-12-18T08:13:50;34.50;;;15.77;;
4652;SDS011;9900;48.738;9.306;2022-12-18T08:16:20;34.07;;;15.87;;
4652;SDS011;9900;48.738;9.306;2022-12-18T08:18:49;31.90;;;14.50;;
4652;SDS011;9900;48.738;9.306;2022-12-18T08:21:20;38.87;;;16.20;;
4652;SDS011;9900;48.738;9.306;2022-12-18T08:23:52;37.30;;;15.83;;
4652;SDS011;9900;48.738;9.306;2022-12-18T08:26:23;36.10;;;15.70;;
4652;SDS011;9900;48.738;9.306;2022-12-18T08:28:53;30.70;;;14.80;;
4652;SDS011;9900;48.738;9.306;2022-12-18T08:31:22;35.00;;;15.00;;
4652;SDS011;9900;48.738;9.306;2022-12-18T08:33:51;34.90;;;14.73;;
4652;SDS011;9900;48.738;9.306;2022-12-18T08:36:22;37.43;;;14.60;;
4652;SDS011;9900;48.738;9.306;2022-12-18T08:38:53;30.30;;;13.30;;
4652;SDS011;9900;48.738;9.306;2022-12-18T08:41:21;41.53;;;16.50;;
4652;SDS011;9900;48.738;9.306;2022-12-18T08:43:50;42.43;;;16.30;;
4652;SDS011;9900;48.738;9.306;2022-12-18T08:46:37;35.53;;;14.93;;
4652;SDS011;9900;48.738;9.306;2022-12-18T08:49:07;36.63;;;14.90;;
4652;SDS011;9900;48.738;9.306;2022-12-18T08:51:37;35.00;;;15.90;;
4652;SDS011;9900;48.738;9.306;2022-12-18T08:54:07;38.77;;;15.60;;
4652;SDS011;9900;48.738;9.306;2022-12-18T08:56:35;37.57;;;15.13;;
4652;SDS011;9900;48.738;9.306;2022-12-18T08:59:04;35.40;;;15.73;;
4652;SDS011;9900;48.738;9.306;2022-12-18T09:01:33;34.83;;;15.10;;
4652;SDS011;9900;48.738;9.306;2022-12-18T09:04:02;32.83;;;15.50;;
4652;SDS011;9900;48.738;9.306;2022-12-18T09:06:33;41.47;;;18.10;;
4652;SDS011;9900;48.738;9.306;2022-12-18T09:09:03;43.27;;;15.60;;
4652;SDS011;9900;48.738;9.306;2022-12-18T09:11:34;39.10;;;15.70;;
4652;SDS011;9900;48.738;9.306;2022-12-18T09:14:02;31.10;;;14.67;;
4652;SDS011;9900;48.738;9.306;2022-12-18T09:16:32;44.20;;;16.00;;
4652;SDS011;9900;48.738;9.306;2022-12-18T09:19:02;34.63;;;15.90;;
4652;SDS011;9900;48.738;9.306;2022-12-18T09:21:32;33.27;;;15.67;;
4652;SDS011;9900;48.738;9.306;2022-12-18T09:24:11;33.90;;;15.47;;
4652;SDS011;9900;48.738;9.306;2022-12-18T09:26:42;41.27;;;15.73;;
4652;SDS011;9900;48.738;9.306;2022-12-18T09:29:13;34.10;;;15.87;;
4652;SDS011;9900;48.738;9.306;2022-12-18T09:31:45;42.80;;;17.20;;
4652;SDS011;9900;48.738;9.306;2022-12-18T09:34:14;34.77;;;15.20;;
4652;SDS011;9900;48.738;9.306;2022-12-18T09:36:43;42.07;;;17.43;;
4652;SDS011;9900;48.738;9.306;2022-12-18T09:39:13;41.07;;;18.10;;
4652;SDS011;9900;48.738;9.306;2022-12-18T09:41:46;36.40;;;16.80;;
4652;SDS011;9900;48.738;9.306;2022-12-18T09:44:23;41.87;;;17.60;;
4652;SDS011;9900;48.738;9.306;2022-12-18T09:46:55;36.43;;;16.67;;
4652;SDS011;9900;48.738;9.306;2022-12-18T09:49:30;33.40;;;16.53;;
4652;SDS011;9900;48.738;9.306;2022-12-18T09:52:04;45.07;;;17.57;;
4652;SDS011;9900;48.738;9.306;2022-12-18T09:54:38;36.10;;;15.10;;
4652;SDS011;9900;48.738;9.306;2022-12-18T09:57:11;38.57;;;17.87;;
4652;SDS011;9900;48.738;9.306;2022-12-18T09:59:42;33.63;;;15.60;;
4652;SDS011;9900;48.738;9.306;2022-12-18T10:02:16;45.13;;;17.23;;
4652;SDS011;9900;48.738;9.306;2022-12-18T10:04:51;36.33;;;15.73;;
4652;SDS011;9900;48.738;9.306;2022-12-18T10:07:32;43.40;;;15.67;;
4652;SDS011;9900;48.738;9.306;2022-12-18T10:10:13;36.17;;;16.43;;
4652;SDS011;9900;48.738;9.306;2022-12-18T10:12:53;36.63;;;16.30;;
4652;SDS011;9900;48.738;9.306;2022-12-18T10:15:32;49.63;;;17.53;;
4652;SDS011;9900;48.738;9.306;2022-12-18T10:18:07;36.00;;;17.90;;
4652;SDS011;9900;48.738;9.306;2022-12-18T10:20:48;34.80;;;15.90;;
4652;SDS011;9900;48.738;9.306;2022-12-18T10:23:19;34.50;;;16.70;;
4652;SDS011;9900;48.738;9.306;2022-12-18T10:26:02;44.67;;;18.10;;
4652;SDS011;9900;48.738;9.306;2022-12-18T10:28:34;40.70;;;17.27;;
4652;SDS011;9900;48.738;9.306;2022-12-18T10:31:05;35.70;;;16.07;;
4652;SDS011;9900;48.738;9.306;2022-12-18T10:33:34;48.10;;;18.53;;
4652;SDS011;9900;48.738;9.306;2022-12-18T10:36:03;39.53;;;18.00;;
4652;SDS011;9900;48.738;9.306;2022-12-18T10:38:33;39.20;;;19.30;;
4652;SDS011;9900;48.738;9.306;2022-12-18T10:41:03;44.00;;;17.77;;
4652;SDS011;9900;48.738;9.306;2022-12-18T10:43:35;40.53;;;18.33;;
4652;SDS011;9900;48.738;9.306;2022-12-18T10:46:22;36.60;;;17.97;;
4652;SDS011;9900;48.738;9.306;2022-12-18T10:52:04;39.23;;;17.10;;
4652;SDS011;9900;48.738;9.306;2022-12-18T10:54:34;47.40;;;19.43;;
4652;SDS011;9900;48.738;9.306;2022-12-18T11:00:18;38.67;;;17.10;;
4652;SDS011;9900;48.738;9.306;2022-12-18T11:02:49;39.37;;;18.83;;
4652;SDS011;9900;48.738;9.306;2022-12-18T11:05:23;37.73;;;18.03;;
4652;SDS011;9900;48.738;9.306;2022-12-18T11:07:56;58.50;;;25.57;;
4652;SDS011;9900;48.738;9.306;2022-12-18T11:10:28;44.43;;;19.67;;
4652;SDS011;9900;48.738;9.306;2022-12-18T11:13:09;38.03;;;18.40;;
4652;SDS011;9900;48.738;9.306;2022-12-18T11:15:40;36.80;;;17.53;;
4652;SDS011;9900;48.738;9.306;2022-12-18T11:18:15;35.07;;;18.43;;
4652;SDS011;9900;48.738;9.306;2022-12-18T11:20:49;42.30;;;18.70;;
4652;SDS011;9900;48.738;9.306;2022-12-18T11:23:24;47.93;;;17.20;;
4652;SDS011;9900;48.738;9.306;2022-12-18T11:25:55;42.47;;;18.57;;
4652;SDS011;9900;48.738;9.306;2022-12-18T11:28:26;48.67;;;18.80;;
4652;SDS011;9900;48.738;9.306;2022-12-18T11:31:11;42.60;;;19.97;;
4652;SDS011;9900;48.738;9.306;2022-12-18T11:33:46;43.50;;;18.97;;
4652;SDS011;9900;48.738;9.306;2022-12-18T11:36:49;46.23;;;20.20;;
4652;SDS011;9900;48.738;9.306;2022-12-18T11:39:19;43.90;;;20.33;;
4652;SDS011;9900;48.738;9.306;2022-12-18T11:41:52;41.37;;;20.50;;
4652;SDS011;9900;48.738;9.306;2022-12-18T11:44:41;40.37;;;19.80;;
4652;SDS011;9900;48.738;9.306;2022-12-18T11:47:15;53.60;;;24.67;;
4652;SDS011;9900;48.738;9.306;2022-12-18T11:49:50;49.10;;;20.30;;
4652;SDS011;9900;48.738;9.306;2022-12-18T11:52:20;48.43;;;20.17;;
4652;SDS011;9900;48.738;9.306;2022-12-18T11:54:50;48.57;;;20.80;;
4652;SDS011;9900;48.738;9.306;2022-12-18T11:57:24;45.20;;;20.97;;
4652;SDS011;9900;48.738;9.306;2022-12-18T12:00:02;50.23;;;20.70;;
4652;SDS011;9900;48.738;9.306;2022-12-18T12:02:43;47.30;;;20.47;;
4652;SDS011;9900;48.738;9.306;2022-12-18T12:05:29;44.90;;;21.50;;
4652;SDS011;9900;48.738;9.306;2022-12-18T12:08:06;51.87;;;20.53;;
4652;SDS011;9900;48.738;9.306;2022-12-18T12:10:44;57.03;;;22.23;;
4652;SDS011;9900;48.738;9.306;2022-12-18T12:13:23;44.23;;;20.33;;
4652;SDS011;9900;48.738;9.306;2022-12-18T12:16:01;76.37;;;21.97;;
4652;SDS011;9900;48.738;9.306;2022-12-18T12:18:39;46.10;;;20.77;;
4652;SDS011;9900;48.738;9.306;2022-12-18T12:21:16;44.73;;;20.00;;
4652;SDS011;9900;48.738;9.306;2022-12-18T12:23:50;46.60;;;19.43;;
4652;SDS011;9900;48.738;9.306;2022-12-18T12:26:23;41.10;;;19.23;;
4652;SDS011;9900;48.738;9.306;2022-12-18T12:28:59;45.47;;;21.20;;
4652;SDS011;9900;48.738;9.306;2022-12-18T12:31:38;51.97;;;22.30;;
4652;SDS011;9900;48.738;9.306;2022-12-18T12:34:18;49.40;;;20.77;;
4652;SDS011;9900;48.738;9.306;2022-12-18T12:36:53;45.13;;;21.10;;
4652;SDS011;9900;48.738;9.306;2022-12-18T12:39:30;50.17;;;21.27;;
4652;SDS011;9900;48.738;9.306;2022-12-18T12:41:59;49.53;;;20.63;;
4652;SDS011;9900;48.738;9.306;2022-12-18T12:44:47;46.50;;;22.03;;
4652;SDS011;9900;48.738;9.306;2022-12-18T12:47:24;52.13;;;22.00;;
4652;SDS011;9900;48.738;9.306;2022-12-18T12:49:55;48.27;;;20.53;;
4652;SDS011;9900;48.738;9.306;2022-12-18T12:52:27;52.30;;;22.30;;
4652;SDS011;9900;48.738;9.306;2022-12-18T12:54:59;44.40;;;20.87;;
4652;SDS011;9900;48.738;9.306;2022-12-18T12:57:30;44.93;;;20.93;;
4652;SDS011;9900;48.738;9.306;2022-12-18T13:00:06;41.30;;;19.73;;
4652;SDS011;9900;48.738;9.306;2022-12-18T13:02:39;42.03;;;20.00;;
4652;SDS011;9900;48.738;9.306;2022-12-18T13:05:14;41.37;;;20.93;;
4652;SDS011;9900;48.738;9.306;2022-12-18T13:07:47;55.00;;;22.30;;
4652;SDS011;9900;48.738;9.306;2022-12-18T13:10:24;42.70;;;19.40;;
4652;SDS011;9900;48.738;9.306;2022-12-18T13:12:55;49.67;;;20.40;;
4652;SDS011;9900;48.738;9.306;2022-12-18T13:15:26;47.17;;;20.67;;
4652;SDS011;9900;48.738;9.306;2022-12-18T13:18:03;49.13;;;22.90;;
4652;SDS011;9900;48.738;9.306;2022-12-18T13:20:35;52.50;;;24.30;;
4652;SDS011;9900;48.738;9.306;2022-12-18T13:23:18;67.77;;;28.70;;
4652;SDS011;9900;48.738;9.306;2022-12-18T13:25:55;69.93;;;29.57;;
4652;SDS011;9900;48.738;9.306;2022-12-18T13:34:37;60.93;;;24.70;;
4652;SDS011;9900;48.738;9.306;2022-12-18T13:43:23;54.07;;;23.87;;
4652;SDS011;9900;48.738;9.306;2022-12-18T13:46:01;58.80;;;24.80;;
4652;SDS011;9900;48.738;9.306;2022-12-18T13:48:33;65.73;;;26.00;;
4652;SDS011;9900;48.738;9.306;2022-12-18T13:51:03;59.27;;;26.60;;
4652;SDS011;9900;48.738;9.306;2022-12-18T13:53:35;53.57;;;25.40;;
4652;SDS011;9900;48.738;9.306;2022-12-18T13:56:07;59.97;;;26.50;;
4652;SDS011;9900;48.738;9.306;2022-12-18T13:58:36;53.67;;;23.13;;
4652;SDS011;9900;48.738;9.306;2022-12-18T14:01:10;42.80;;;21.50;;
4652;SDS011;9900;48.738;9.306;2022-12-18T14:03:50;47.10;;;23.30;;
4652;SDS011;9900;48.738;9.306;2022-12-18T14:06:19;55.80;;;22.33;;
4652;SDS011;9900;48.738;9.306;2022-12-18T14:08:50;39.50;;;19.33;;
4652;SDS011;9900;48.738;9.306;2022-12-18T14:11:20;50.30;;;21.43;;
4652;SDS011;9900;48.738;9.306;2022-12-18T14:13:53;47.70;;;20.67;;
4652;SDS011;9900;48.738;9.306;2022-12-18T14:16:21;42.80;;;20.70;;
4652;SDS011;9900;48.738;9.306;2022-12-18T14:18:52;44.20;;;22.10;;
4652;SDS011;9900;48.738;9.306;2022-12-18T14:21:29;43.10;;;20.67;;
4652;SDS011;9900;48.738;9.306;2022-12-18T14:24:04;47.40;;;22.03;;
4652;SDS011;9900;48.738;9.306;2022-12-18T14:26:34;44.80;;;20.50;;
4652;SDS011;9900;48.738;9.306;2022-12-18T14:29:17;45.13;;;20.57;;
4652;SDS011;9900;48.738;9.306;2022-12-18T14:34:44;41.77;;;21.23;;
4652;SDS011;9900;48.738;9.306;2022-12-18T14:37:14;44.33;;;19.73;;
4652;SDS011;9900;48.738;9.306;2022-12-18T14:39:56;47.87;;;20.50;;
4652;SDS011;9900;48.738;9.306;2022-12-18T14:42:25;41.53;;;19.80;;
4652;SDS011;9900;48.738;9.306;2022-12-18T14:48:09;39.37;;;19.83;;
4652;SDS011;9900;48.738;9.306;2022-12-18T14:50:56;45.60;;;19.13;;
4652;SDS011;9900;48.738;9.306;2022-12-18T14:53:34;49.03;;;18.70;;
4652;SDS011;9900;48.738;9.306;2022-12-18T14:56:15;42.70;;;17.97;;
4652;SDS011;9900;48.738;9.306;2022-12-18T14:58:46;43.70;;;19.67;;
4652;SDS011;9900;48.738;9.306;2022-12-18T15:01:19;39.43;;;18.80;;
4652;SDS011;9900;48.738;9.306;2022-12-18T15:03:50;43.87;;;18.40;;
4652;SDS011;9900;48.738;9.306;2022-12-18T15:06:24;38.20;;;18.83;;
4652;SDS011;9900;48.738;9.306;2022-12-18T15:08:55;40.70;;;19.17;;
4652;SDS011;9900;48.738;9.306;2022-12-18T15:11:30;37.57;;;18.37;;
4652;SDS011;9900;48.738;9.306;2022-12-18T15:17:12;41.57;;;18.77;;
4652;SDS011;9900;48.738;9.306;2022-12-18T15:19:44;38.57;;;18.77;;
4652;SDS011;9900;48.738;9.306;2022-12-18T15:22:21;48.90;;;20.30;;
4652;SDS011;9900;48.738;9.306;2022-12-18T15:24:51;45.70;;;18.50;;
4652;SDS011;9900;48.738;9.306;2022-12-18T15:27:23;42.90;;;21.17;;
4652;SDS011;9900;48.738;9.306;2022-12-18T15:30:00;44.67;;;18.30;;
4652;SDS011;9900;48.738;9.306;2022-12-18T15:32:44;46.40;;;21.63;;
4652;SDS011;9900;48.738;9.306;2022-12-18T15:35:13;51.33;;;21.17;;
4652;SDS011;9900;48.738;9.306;2022-12-18T15:37:44;44.47;;;20.10;;
4652;SDS011;9900;48.738;9.306;2022-12-18T15:40:13;42.80;;;20.17;;
4652;SDS011;9900;48.738;9.306;2022-12-18T15:42:45;44.63;;;20.67;;